createdAt,value
2019-02-28T00:01:12.864Z,29.74
2019-02-28T00:03:33.552Z,29.80
2019-02-28T00:05:54.251Z,29.63
2019-02-28T00:08:22.102Z,29.64
2019-02-28T00:10:42.083Z,30.38
2019-02-28T00:13:22.512Z,29.66
2019-02-28T00:15:49.348Z,29.93
2019-02-28T00:18:03.749Z,30.07
2019-02-28T00:20:33.331Z,30.53
2019-02-28T00:23:03.686Z,34.53
2019-02-28T00:25:20.499Z,30.49
2019-02-28T00:27:42.886Z,29.90
2019-02-28T00:30:06.023Z,29.74
2019-02-28T00:32:13.134Z,29.40
2019-02-28T00:39:55.482Z,29.37
2019-02-28T00:42:28.876Z,29.33
2019-02-28T00:44:34.804Z,29.73
2019-02-28T00:46:53.578Z,29.89
2019-02-28T00:51:50.700Z,29.40
2019-02-28T00:54:09.460Z,29.58
2019-02-28T00:56:17.525Z,29.46
2019-02-28T00:58:31.456Z,29.39
2019-02-28T01:00:44.228Z,29.73
2019-02-28T01:03:01.521Z,29.62
2019-02-28T01:05:20.998Z,29.50
2019-02-28T01:08:15.600Z,29.63
2019-02-28T01:10:46.814Z,29.64
2019-02-28T01:12:55.960Z,29.40
2019-02-28T01:15:03.395Z,29.52
2019-02-28T01:17:13.616Z,29.42
2019-02-28T01:19:21.071Z,29.93
2019-02-28T01:21:29.053Z,29.92
2019-02-28T01:26:25.319Z,29.90
2019-02-28T01:28:32.603Z,29.86
2019-02-28T01:30:40.553Z,29.69
2019-02-28T01:32:50.907Z,30.03
2019-02-28T01:34:59.521Z,29.80
2019-02-28T01:37:07.119Z,29.90
2019-02-28T01:39:14.811Z,30.01
2019-02-28T01:41:22.560Z,30.17
2019-02-28T01:43:30.803Z,29.83
2019-02-28T01:45:43.486Z,30.05
2019-02-28T01:47:47.935Z,29.96
2019-02-28T01:49:57.712Z,30.10
2019-02-28T01:52:09.790Z,30.28
2019-02-28T01:55:30.261Z,30.33
2019-02-28T01:56:40.037Z,30.37
2019-02-28T01:58:52.572Z,30.10
2019-02-28T02:01:10.135Z,30.09
2019-02-28T02:03:35.575Z,30.09
2019-02-28T02:06:51.725Z,30.40
2019-02-28T02:09:03.246Z,30.28
2019-02-28T02:11:35.939Z,30.46
2019-02-28T02:14:26.835Z,30.47
2019-02-28T02:16:44.465Z,30.44
2019-02-28T02:19:18.477Z,30.52
2019-02-28T02:21:43.035Z,30.73
2019-02-28T02:23:53.109Z,30.78
2019-02-28T02:26:01.001Z,30.95
2019-02-28T02:28:09.877Z,30.87
2019-02-28T02:30:22.808Z,30.88
2019-02-28T02:32:37.283Z,30.85
2019-02-28T02:34:39.277Z,30.76
2019-02-28T02:36:53.062Z,30.79
2019-02-28T02:38:56.397Z,30.80
2019-02-28T02:41:07.640Z,30.65
2019-02-28T02:43:23.381Z,30.43
2019-02-28T02:45:41.896Z,30.36
2019-02-28T02:50:34.021Z,31.22
2019-02-28T02:52:53.222Z,31.32
2019-02-28T02:55:13.405Z,31.58
2019-02-28T02:58:10.139Z,31.65
2019-02-28T03:03:06.033Z,31.17
2019-02-28T03:05:45.272Z,31.31
2019-02-28T03:08:04.271Z,31.65
2019-02-28T03:10:23.121Z,31.62
2019-02-28T03:12:34.594Z,31.72
2019-02-28T03:14:51.986Z,31.60
2019-02-28T03:17:10.401Z,31.65
2019-02-28T03:19:20.838Z,31.84
2019-02-28T03:21:34.891Z,31.81
2019-02-28T03:23:44.693Z,31.83
2019-02-28T03:25:54.302Z,31.90
2019-02-28T03:28:01.986Z,31.92
2019-02-28T03:30:27.829Z,31.40
2019-02-28T03:32:59.904Z,31.76
2019-02-28T03:35:17.474Z,31.62
2019-02-28T03:37:36.449Z,32.29
2019-02-28T03:39:48.063Z,31.80
2019-02-28T03:41:55.432Z,31.15
2019-02-28T03:44:07.518Z,31.08
2019-02-28T03:46:14.761Z,30.58
2019-02-28T03:48:35.901Z,30.49
2019-02-28T03:50:48.887Z,30.21
2019-02-28T03:53:01.060Z,30.33
2019-02-28T03:55:08.974Z,30.53
2019-02-28T03:57:16.302Z,30.94
2019-02-28T03:59:55.356Z,30.61
2019-02-28T04:01:56.651Z,30.60
2019-02-28T04:04:34.852Z,30.65
2019-02-28T04:09:21.317Z,31.07
2019-02-28T04:11:38.978Z,31.29
2019-02-28T04:13:52.409Z,31.37
2019-02-28T04:16:08.802Z,31.37
2019-02-28T04:18:09.544Z,31.71
2019-02-28T04:20:16.981Z,31.58
2019-02-28T04:22:25.711Z,31.58
2019-02-28T04:24:32.993Z,31.70
2019-02-28T04:26:40.753Z,31.73
2019-02-28T04:28:53.488Z,31.55
2019-02-28T04:30:59.529Z,35.02
2019-02-28T04:33:07.631Z,32.07
2019-02-28T04:35:14.984Z,31.54
2019-02-28T04:37:22.436Z,31.12
2019-02-28T04:39:29.641Z,30.61
2019-02-28T04:41:39.312Z,30.60
2019-02-28T04:43:46.593Z,30.42
2019-02-28T04:45:53.857Z,30.46
2019-02-28T04:48:01.044Z,30.64
2019-02-28T04:50:08.646Z,30.37
2019-02-28T04:52:17.212Z,29.79
2019-02-28T04:54:27.899Z,29.79
2019-02-28T04:56:33.767Z,29.80
2019-02-28T04:58:41.476Z,29.66
2019-02-28T05:00:49.421Z,29.92
2019-02-28T05:02:56.669Z,29.97
2019-02-28T05:05:16.236Z,30.11
2019-02-28T05:08:15.004Z,30.74
2019-02-28T05:10:39.331Z,30.54
2019-02-28T05:12:46.626Z,30.51
2019-02-28T05:15:06.392Z,30.73
2019-02-28T05:17:14.318Z,30.68
2019-02-28T05:19:21.706Z,30.54
2019-02-28T05:21:33.673Z,30.71
2019-02-28T05:23:41.216Z,30.89
2019-02-28T05:25:49.075Z,30.70
2019-02-28T05:27:59.437Z,30.74
2019-02-28T05:30:07.104Z,30.88
2019-02-28T05:32:15.060Z,30.59
2019-02-28T05:34:25.223Z,30.59
2019-02-28T05:36:34.590Z,30.99
2019-02-28T05:38:42.802Z,30.93
2019-02-28T05:40:49.916Z,31.22
2019-02-28T05:42:58.534Z,33.00
2019-02-28T05:45:06.183Z,35.51
2019-02-28T05:47:45.864Z,31.35
2019-02-28T05:49:43.758Z,31.31
2019-02-28T05:51:51.044Z,30.92
2019-02-28T05:53:58.399Z,30.69
2019-02-28T05:56:05.455Z,30.48
2019-02-28T05:58:17.369Z,30.32
2019-02-28T06:00:24.131Z,30.87
2019-02-28T06:02:31.118Z,30.50
2019-02-28T06:04:40.021Z,30.65
2019-02-28T06:06:48.186Z,30.52
2019-02-28T06:08:55.393Z,30.55
2019-02-28T06:11:02.891Z,30.81
2019-02-28T06:13:10.222Z,30.79
2019-02-28T06:15:18.470Z,30.72
2019-02-28T06:17:26.566Z,30.95
2019-02-28T06:19:44.304Z,30.95
2019-02-28T06:21:56.380Z,31.28
2019-02-28T06:24:02.715Z,32.13
2019-02-28T06:26:10.512Z,31.57
2019-02-28T06:28:17.840Z,31.67
2019-02-28T06:30:27.672Z,31.16
2019-02-28T06:32:34.338Z,31.08
2019-02-28T06:34:42.270Z,30.85
2019-02-28T06:36:50.467Z,30.81
2019-02-28T06:38:57.555Z,30.81
2019-02-28T06:41:07.530Z,31.05
2019-02-28T06:43:15.234Z,30.49
2019-02-28T06:45:22.717Z,29.94
2019-02-28T06:47:29.821Z,29.72
2019-02-28T06:49:41.814Z,29.94
2019-02-28T06:51:48.372Z,30.04
2019-02-28T06:53:56.140Z,30.30
2019-02-28T06:56:03.759Z,30.20
2019-02-28T06:58:10.816Z,30.31
2019-02-28T07:00:18.136Z,30.41
2019-02-28T07:02:28.580Z,30.54
2019-02-28T07:04:34.858Z,30.97
2019-02-28T07:06:42.709Z,31.82
2019-02-28T07:08:50.000Z,31.94
2019-02-28T07:10:57.213Z,31.87
2019-02-28T07:13:05.523Z,31.70
2019-02-28T07:15:14.101Z,31.54
2019-02-28T07:17:21.705Z,31.37
2019-02-28T07:19:29.066Z,31.38
2019-02-28T07:21:42.868Z,31.17
2019-02-28T07:23:45.969Z,30.93
2019-02-28T07:25:53.144Z,30.03
2019-02-28T07:28:01.535Z,29.96
2019-02-28T07:30:17.153Z,30.16
2019-02-28T07:32:20.677Z,30.02
2019-02-28T07:34:27.885Z,30.28
2019-02-28T07:36:34.928Z,30.33
2019-02-28T07:38:42.261Z,30.60
2019-02-28T07:40:50.423Z,30.88
2019-02-28T07:42:57.825Z,30.87
2019-02-28T07:45:05.004Z,30.69
2019-02-28T07:47:17.118Z,31.25
2019-02-28T07:49:21.188Z,31.25
2019-02-28T07:51:30.571Z,31.96
2019-02-28T07:53:40.925Z,32.19
2019-02-28T07:55:46.978Z,32.11
2019-02-28T07:57:56.571Z,32.03
2019-02-28T08:00:04.408Z,31.64
2019-02-28T08:02:12.612Z,31.29
2019-02-28T08:04:19.725Z,31.94
2019-02-28T08:10:12.710Z,30.30
2019-02-28T08:13:06.086Z,30.37
2019-02-28T08:15:22.313Z,30.76
2019-02-28T08:17:44.716Z,30.96
2019-02-28T08:20:03.164Z,30.82
2019-02-28T08:24:43.364Z,31.24
2019-02-28T08:26:53.628Z,31.70
2019-02-28T08:29:00.242Z,31.75
2019-02-28T08:31:07.921Z,31.91
2019-02-28T08:33:16.573Z,31.54
2019-02-28T08:35:24.452Z,31.56
2019-02-28T08:37:31.934Z,31.22
2019-02-28T08:39:42.184Z,31.10
2019-02-28T08:42:02.879Z,30.92
2019-02-28T08:44:06.805Z,30.70
2019-02-28T08:46:14.166Z,30.43
2019-02-28T08:48:21.227Z,30.39
2019-02-28T08:50:28.435Z,30.32
2019-02-28T08:52:37.705Z,30.15
2019-02-28T08:54:44.641Z,30.13
2019-02-28T08:56:52.004Z,30.26
2019-02-28T08:58:59.127Z,30.39
2019-02-28T09:01:08.451Z,30.46
2019-02-28T09:03:18.902Z,30.57
2019-02-28T09:05:38.143Z,31.45
2019-02-28T09:08:17.687Z,31.04
2019-02-28T09:10:37.542Z,31.30
2019-02-28T09:12:54.005Z,31.36
2019-02-28T09:15:06.229Z,31.14
2019-02-28T09:17:43.488Z,31.11
2019-02-28T09:22:31.776Z,30.60
2019-02-28T09:24:43.671Z,30.60
2019-02-28T09:26:54.529Z,30.02
2019-02-28T09:29:22.253Z,29.75
2019-02-28T09:31:39.015Z,29.69
2019-02-28T09:34:09.193Z,29.68
2019-02-28T09:36:20.222Z,30.04
2019-02-28T09:38:25.767Z,30.07
2019-02-28T09:40:33.486Z,30.49
2019-02-28T09:45:35.762Z,31.44
2019-02-28T09:47:44.116Z,31.05
2019-02-28T09:50:22.618Z,30.93
2019-02-28T09:52:42.601Z,30.77
2019-02-28T09:55:10.187Z,30.84
2019-02-28T09:57:25.593Z,30.58
2019-02-28T09:59:42.075Z,30.06
2019-02-28T10:02:01.761Z,29.82
2019-02-28T10:04:38.229Z,30.15
2019-02-28T10:07:32.011Z,29.82
2019-02-28T10:10:11.357Z,30.18
2019-02-28T10:12:19.883Z,30.47
2019-02-28T10:14:43.824Z,30.59
2019-02-28T10:17:03.909Z,30.81
2019-02-28T10:19:17.751Z,30.50
2019-02-28T10:22:03.894Z,30.97
2019-02-28T10:24:50.851Z,31.83
2019-02-28T10:27:04.681Z,31.25
2019-02-28T10:29:51.250Z,31.10
2019-02-28T10:31:58.983Z,30.90
2019-02-28T10:34:10.794Z,30.65
2019-02-28T10:36:18.029Z,30.56
2019-02-28T10:38:32.916Z,30.40
2019-02-28T10:40:44.973Z,30.51
2019-02-28T10:42:54.034Z,30.16
2019-02-28T10:45:06.582Z,30.16
2019-02-28T10:47:29.779Z,30.11
2019-02-28T10:49:35.945Z,29.86
2019-02-28T10:51:57.335Z,29.77
2019-02-28T10:54:24.512Z,29.90
2019-02-28T10:56:31.742Z,30.02
2019-02-28T10:58:39.818Z,29.91
2019-02-28T11:01:10.104Z,29.86
2019-02-28T11:03:24.245Z,30.19
2019-02-28T11:05:56.229Z,30.39
2019-02-28T11:08:09.695Z,30.88
2019-02-28T11:10:22.141Z,31.04
2019-02-28T11:12:41.778Z,30.66
2019-02-28T11:14:53.011Z,30.58
2019-02-28T11:17:13.908Z,30.39
2019-02-28T11:19:44.924Z,30.24
2019-02-28T11:21:40.067Z,30.45
2019-02-28T11:23:50.271Z,30.30
2019-02-28T11:25:58.494Z,30.69
2019-02-28T11:28:10.881Z,30.02
2019-02-28T11:31:43.328Z,29.87
2019-02-28T11:33:03.047Z,29.81
2019-02-28T11:35:33.616Z,30.00
2019-02-28T11:37:48.974Z,30.29
2019-02-28T11:40:00.992Z,30.20
2019-02-28T11:42:09.415Z,30.18
2019-02-28T11:44:31.715Z,30.60
2019-02-28T11:49:18.143Z,30.42
2019-02-28T11:51:38.951Z,30.51
2019-02-28T11:56:14.342Z,30.56
2019-02-28T11:58:31.763Z,31.25
2019-02-28T12:00:47.548Z,30.93
2019-02-28T12:03:25.792Z,30.95
2019-02-28T12:05:49.870Z,30.89
2019-02-28T12:07:58.133Z,30.66
2019-02-28T12:10:12.407Z,30.52
2019-02-28T12:12:20.457Z,30.40
2019-02-28T12:14:30.128Z,30.32
2019-02-28T12:16:38.251Z,30.17
2019-02-28T12:18:46.979Z,30.05
2019-02-28T12:20:58.635Z,30.37
2019-02-28T12:23:04.827Z,30.04
2019-02-28T12:25:19.257Z,29.94
2019-02-28T12:27:30.520Z,29.80
2019-02-28T12:29:38.461Z,29.98
2019-02-28T12:31:46.210Z,29.85
2019-02-28T12:33:59.629Z,29.93
2019-02-28T12:36:14.451Z,30.05
2019-02-28T12:38:29.217Z,30.49
2019-02-28T12:40:45.742Z,30.56
2019-02-28T12:42:54.885Z,30.61
2019-02-28T12:45:41.347Z,30.53
2019-02-28T12:47:48.714Z,30.36
2019-02-28T12:50:18.469Z,30.28
2019-02-28T12:52:52.833Z,30.15
2019-02-28T12:55:05.638Z,30.14
2019-02-28T12:57:13.139Z,30.18
2019-02-28T12:59:31.885Z,29.99
2019-02-28T13:01:42.597Z,29.84
2019-02-28T13:04:00.298Z,29.92
2019-02-28T13:06:05.790Z,29.73
2019-02-28T13:08:16.299Z,29.56
2019-02-28T13:10:28.035Z,29.54
2019-02-28T13:12:37.855Z,29.81
2019-02-28T13:15:01.444Z,29.64
2019-02-28T13:17:02.546Z,29.44
2019-02-28T13:19:16.449Z,29.45
2019-02-28T13:21:27.632Z,29.37
2019-02-28T13:26:05.922Z,29.18
2019-02-28T13:28:17.773Z,29.04
2019-02-28T13:30:49.096Z,28.89
2019-02-28T13:33:05.805Z,28.89
2019-02-28T13:35:56.193Z,29.01
2019-02-28T13:38:17.361Z,29.92
2019-02-28T13:40:32.596Z,29.00
2019-02-28T13:42:49.246Z,28.99
2019-02-28T13:44:59.266Z,28.91
2019-02-28T13:47:11.863Z,28.85
2019-02-28T13:49:36.174Z,29.20
2019-02-28T13:52:06.127Z,29.15
2019-02-28T13:54:20.157Z,28.87
2019-02-28T13:56:33.223Z,29.24
2019-02-28T13:58:57.164Z,29.18
2019-02-28T14:01:12.197Z,29.93
2019-02-28T14:03:24.465Z,29.38
2019-02-28T14:05:41.656Z,29.00
2019-02-28T14:07:49.857Z,28.90
2019-02-28T14:10:07.869Z,28.40
2019-02-28T14:12:17.069Z,28.39
2019-02-28T14:14:34.587Z,28.77
2019-02-28T14:16:58.390Z,29.35
2019-02-28T14:19:20.286Z,29.16
2019-02-28T14:21:34.351Z,29.32
2019-02-28T14:23:45.027Z,29.23
2019-02-28T14:25:56.843Z,29.38
2019-02-28T14:28:13.505Z,32.01
2019-02-28T14:30:29.247Z,29.24
2019-02-28T14:35:22.757Z,31.65
2019-02-28T14:35:34.113Z,29.04
2019-02-28T14:37:23.157Z,25.95
2019-02-28T14:39:39.767Z,27.99
2019-02-28T14:42:03.161Z,27.12
2019-02-28T14:44:14.932Z,27.11
2019-02-28T14:46:22.509Z,27.33
2019-02-28T14:48:36.532Z,27.54
2019-02-28T14:50:46.238Z,27.94
2019-02-28T14:52:58.634Z,28.28
2019-02-28T14:55:10.638Z,28.15
2019-02-28T14:57:30.734Z,27.87
2019-02-28T14:59:44.620Z,28.08
2019-02-28T15:01:56.078Z,27.81
2019-02-28T15:04:09.302Z,28.16
2019-02-28T15:06:16.576Z,28.51
2019-02-28T15:08:51.004Z,28.12
2019-02-28T15:11:14.032Z,28.02
2019-02-28T15:13:25.795Z,28.18
2019-02-28T15:15:36.589Z,28.06
2019-02-28T15:17:57.525Z,28.28
2019-02-28T15:20:12.805Z,28.09
2019-02-28T15:22:31.684Z,28.09
2019-02-28T15:24:51.956Z,28.18
2019-02-28T15:27:06.054Z,28.36
2019-02-28T15:29:23.387Z,28.34
2019-02-28T15:31:31.461Z,28.70
2019-02-28T15:33:44.402Z,28.93
2019-02-28T15:35:57.850Z,28.20
2019-02-28T15:38:11.824Z,28.48
2019-02-28T15:40:26.218Z,28.30
2019-02-28T15:42:42.904Z,28.23
2019-02-28T15:44:56.472Z,28.67
2019-02-28T15:47:13.546Z,28.45
2019-02-28T15:49:25.523Z,28.33
2019-02-28T15:51:39.280Z,28.46
2019-02-28T15:53:46.859Z,28.56
2019-02-28T15:55:59.768Z,28.86
2019-02-28T15:58:11.891Z,28.39
2019-02-28T16:00:37.045Z,28.21
2019-02-28T16:02:44.247Z,28.71
2019-02-28T16:04:52.149Z,28.49
2019-02-28T16:06:59.592Z,28.23
2019-02-28T16:09:12.899Z,28.59
2019-02-28T16:11:22.526Z,28.25
2019-02-28T16:13:38.459Z,28.42
2019-02-28T16:15:51.874Z,28.54
2019-02-28T16:18:08.649Z,28.06
2019-02-28T16:20:20.306Z,28.19
2019-02-28T16:22:31.903Z,27.98
2019-02-28T16:24:46.844Z,28.74
2019-02-28T16:27:01.094Z,28.29
2019-02-28T16:29:31.595Z,28.67
2019-02-28T16:31:41.629Z,28.49
2019-02-28T16:33:56.621Z,28.74
2019-02-28T16:36:03.040Z,28.60
2019-02-28T16:38:16.884Z,28.22
2019-02-28T16:40:28.154Z,28.38
2019-02-28T16:45:16.312Z,28.39
2019-02-28T16:48:03.052Z,28.02
2019-02-28T16:50:15.291Z,28.25
2019-02-28T16:52:27.359Z,28.14
2019-02-28T16:54:42.101Z,28.31
2019-02-28T16:57:01.352Z,28.26
2019-02-28T16:59:17.923Z,29.37
2019-02-28T17:01:40.961Z,28.05
2019-02-28T17:03:52.016Z,28.04
2019-02-28T17:06:02.370Z,27.99
2019-02-28T17:08:15.500Z,27.91
2019-02-28T17:10:32.956Z,27.99
2019-02-28T17:13:06.998Z,27.85
2019-02-28T17:15:26.038Z,27.79
2019-02-28T17:17:47.082Z,27.73
2019-02-28T17:19:58.050Z,27.78
2019-02-28T17:22:05.515Z,27.88
2019-02-28T17:24:17.723Z,27.98
2019-02-28T17:27:02.369Z,27.96
2019-02-28T17:29:29.621Z,27.92
2019-02-28T17:31:44.674Z,27.78
2019-02-28T17:33:54.278Z,27.64
2019-02-28T17:36:08.457Z,27.65
2019-02-28T17:38:31.868Z,27.37
2019-02-28T17:40:39.124Z,27.50
2019-02-28T17:42:49.830Z,27.26
2019-02-28T17:45:15.504Z,27.25
2019-02-28T17:47:56.525Z,27.12
2019-02-28T17:50:32.351Z,27.15
2019-02-28T17:52:52.656Z,26.66
2019-02-28T17:55:45.784Z,26.82
2019-02-28T17:58:20.793Z,27.04
2019-02-28T18:01:05.011Z,27.02
2019-02-28T18:03:29.114Z,27.02
2019-02-28T18:06:00.506Z,26.97
2019-02-28T18:08:18.576Z,27.10
2019-02-28T18:11:02.888Z,27.15
2019-02-28T18:13:52.241Z,27.70
2019-02-28T18:16:33.828Z,27.97
2019-02-28T18:19:33.380Z,28.14
2019-02-28T18:22:16.879Z,27.74
2019-02-28T18:25:23.161Z,27.74
2019-02-28T18:27:56.755Z,27.95
2019-02-28T18:30:57.545Z,27.83
2019-02-28T18:33:10.236Z,28.25
2019-02-28T18:35:25.966Z,28.11
2019-02-28T18:37:33.167Z,28.61
2019-02-28T18:39:49.322Z,28.64
2019-02-28T18:41:57.042Z,28.63
2019-02-28T18:44:05.144Z,28.72
2019-02-28T18:46:15.545Z,28.59
2019-02-28T18:48:34.139Z,28.15
2019-02-28T18:50:40.427Z,27.75
2019-02-28T18:52:47.817Z,28.58
2019-02-28T18:54:55.048Z,27.85
2019-02-28T18:57:05.897Z,27.94
2019-02-28T18:59:13.277Z,29.83
2019-02-28T19:01:20.702Z,27.98
2019-02-28T19:03:37.179Z,28.67
2019-02-28T19:05:50.488Z,28.63
2019-02-28T19:07:58.005Z,28.32
2019-02-28T19:10:06.748Z,28.91
2019-02-28T19:12:13.987Z,28.90
2019-02-28T19:14:21.576Z,28.89
2019-02-28T19:16:28.633Z,29.06
2019-02-28T19:18:57.937Z,29.79
2019-02-28T19:21:19.728Z,29.12
2019-02-28T19:23:43.020Z,28.64
2019-02-28T19:25:55.051Z,28.58
2019-02-28T19:28:02.403Z,28.53
2019-02-28T19:30:11.484Z,28.70
2019-02-28T19:35:19.020Z,28.74
2019-02-28T19:37:26.277Z,28.82
2019-02-28T19:39:33.467Z,28.71
2019-02-28T19:41:45.055Z,30.38
2019-02-28T19:43:52.616Z,30.10
2019-02-28T19:46:02.294Z,29.27
2019-02-28T19:48:09.464Z,29.85
2019-02-28T19:50:17.557Z,29.17
2019-02-28T19:52:24.978Z,30.06
2019-02-28T19:54:36.972Z,29.13
2019-02-28T19:56:44.128Z,29.16
2019-02-28T19:58:51.254Z,29.39
2019-02-28T20:00:59.644Z,29.26
2019-02-28T20:06:05.903Z,29.25
2019-02-28T20:08:14.030Z,29.23
2019-02-28T20:10:21.361Z,30.39
2019-02-28T20:12:31.043Z,29.53
2019-02-28T20:14:38.772Z,29.35
2019-02-28T20:16:46.028Z,30.41
2019-02-28T20:18:53.750Z,29.37
2019-02-28T20:21:01.030Z,29.60
2019-02-28T20:23:09.081Z,29.62
2019-02-28T20:25:17.589Z,29.61
2019-02-28T20:27:26.166Z,30.11
2019-02-28T20:29:33.748Z,29.73
2019-02-28T20:31:41.844Z,29.39
2019-02-28T20:33:49.142Z,29.67
2019-02-28T20:35:57.164Z,29.73
2019-02-28T20:38:04.841Z,29.91
2019-02-28T20:40:14.147Z,29.68
2019-02-28T20:42:22.322Z,29.83
2019-02-28T20:44:30.580Z,29.66
2019-02-28T20:46:37.877Z,29.79
2019-02-28T20:48:45.162Z,29.90
2019-02-28T20:50:52.519Z,29.82
2019-02-28T20:52:59.835Z,29.98
2019-02-28T20:55:08.068Z,29.46
2019-02-28T20:57:15.473Z,29.51
2019-02-28T20:59:23.136Z,29.62
2019-02-28T21:01:31.077Z,29.62
2019-02-28T21:03:38.187Z,30.11
2019-02-28T21:05:45.874Z,29.74
2019-02-28T21:07:54.047Z,29.49
2019-02-28T21:10:02.213Z,30.02
2019-02-28T21:12:10.193Z,29.83
2019-02-28T21:14:18.544Z,30.02
2019-02-28T21:16:26.482Z,29.83
2019-02-28T21:18:33.716Z,29.72
2019-02-28T21:20:42.360Z,29.53
2019-02-28T21:22:50.063Z,29.47
2019-02-28T21:24:57.236Z,29.30
2019-02-28T21:27:04.595Z,29.25
2019-02-28T21:29:11.878Z,29.34
2019-02-28T21:31:18.813Z,29.47
2019-02-28T21:33:26.841Z,30.12
2019-02-28T21:35:34.223Z,29.99
2019-02-28T21:37:41.467Z,29.26
2019-02-28T21:39:49.373Z,29.29
2019-02-28T21:41:56.810Z,32.30
2019-02-28T21:44:13.985Z,29.56
2019-02-28T21:46:24.560Z,29.29
2019-02-28T21:48:32.424Z,29.17
2019-02-28T21:50:43.145Z,29.57
2019-02-28T21:53:05.643Z,29.88
2019-02-28T21:55:21.225Z,29.08
2019-02-28T21:57:29.269Z,29.31
2019-02-28T21:59:36.884Z,30.81
2019-02-28T22:01:45.045Z,29.37
2019-02-28T22:03:53.908Z,29.45
2019-02-28T22:08:28.063Z,29.15
2019-02-28T22:10:38.686Z,29.09
2019-02-28T22:12:47.545Z,29.19
2019-02-28T22:14:58.002Z,28.93
2019-02-28T22:17:05.699Z,29.17
2019-02-28T22:19:22.173Z,28.84
2019-02-28T22:21:29.771Z,29.64
2019-02-28T22:23:37.983Z,30.37
2019-02-28T22:25:45.819Z,29.32
2019-02-28T22:27:53.294Z,29.38
2019-02-28T22:30:13.932Z,29.25
2019-02-28T22:32:28.955Z,29.19
2019-02-28T22:34:49.144Z,29.30
2019-02-28T22:37:04.649Z,29.08
2019-02-28T22:42:21.907Z,29.22
2019-02-28T22:45:14.653Z,29.29
2019-02-28T22:46:53.876Z,29.17
2019-02-28T22:49:18.403Z,29.34
2019-02-28T22:51:32.551Z,29.25
2019-02-28T22:53:48.182Z,29.08
2019-02-28T22:56:03.149Z,29.03
2019-02-28T22:58:32.741Z,29.20
2019-02-28T23:04:25.765Z,29.81
2019-02-28T23:06:34.777Z,29.40
2019-02-28T23:09:32.995Z,29.43
2019-02-28T23:11:43.011Z,29.19
2019-02-28T23:14:11.106Z,28.90
2019-02-28T23:16:07.114Z,29.13
2019-02-28T23:18:40.545Z,28.88
2019-02-28T23:23:30.671Z,30.21
2019-02-28T23:26:06.386Z,29.51
2019-02-28T23:28:21.971Z,29.32
2019-02-28T23:31:04.850Z,29.27
2019-02-28T23:33:22.214Z,28.93
2019-02-28T23:35:45.253Z,28.69
2019-02-28T23:38:19.530Z,28.94
2019-02-28T23:40:34.387Z,29.04
2019-02-28T23:43:10.197Z,28.73
2019-02-28T23:45:25.227Z,28.80
2019-02-28T23:47:42.045Z,28.66
2019-02-28T23:50:18.275Z,29.08
2019-02-28T23:52:28.706Z,29.60
2019-02-28T23:54:39.383Z,29.50
2019-02-28T23:59:39.876Z,29.06
